createdAt,value
2018-12-31T00:02:04.776Z,42.07
2018-12-31T00:04:33.683Z,48.13
2018-12-31T00:07:02.581Z,47.00
2018-12-31T00:09:31.477Z,50.03
2018-12-31T00:12:00.451Z,53.40
2018-12-31T00:14:29.284Z,58.10
2018-12-31T00:16:58.174Z,49.50
2018-12-31T00:19:27.115Z,54.00
2018-12-31T00:21:56.029Z,48.03
2018-12-31T00:24:24.933Z,52.83
2018-12-31T00:26:53.879Z,52.40
2018-12-31T00:29:22.784Z,56.27
2018-12-31T00:31:51.683Z,62.30
2018-12-31T00:34:20.588Z,56.10
2018-12-31T00:36:49.466Z,58.90
2018-12-31T00:39:18.383Z,57.93
2018-12-31T00:41:47.267Z,60.47
2018-12-31T00:44:16.171Z,52.20
2018-12-31T00:46:45.084Z,60.20
2018-12-31T00:49:13.990Z,57.67
2018-12-31T00:51:42.885Z,52.47
2018-12-31T00:54:11.831Z,69.92
2018-12-31T00:56:40.709Z,60.67
2018-12-31T00:59:09.661Z,53.23
2018-12-31T01:01:38.547Z,57.20
2018-12-31T01:04:07.451Z,55.03
2018-12-31T01:06:36.365Z,51.97
2018-12-31T01:09:07.253Z,52.37
2018-12-31T01:11:36.092Z,54.87
2018-12-31T01:14:05.020Z,46.43
2018-12-31T01:16:33.898Z,48.07
2018-12-31T01:19:02.813Z,50.80
2018-12-31T01:21:31.701Z,55.97
2018-12-31T01:24:00.610Z,65.03
2018-12-31T01:26:29.509Z,51.70
2018-12-31T01:28:58.436Z,50.90
2018-12-31T01:31:27.374Z,47.30
2018-12-31T01:33:56.264Z,53.37
2018-12-31T01:36:25.184Z,60.85
2018-12-31T01:38:54.148Z,52.10
2018-12-31T01:41:23.037Z,49.73
2018-12-31T01:43:51.959Z,52.47
2018-12-31T01:46:20.847Z,54.70
2018-12-31T01:48:49.745Z,52.20
2018-12-31T01:51:18.656Z,55.43
2018-12-31T01:53:47.566Z,46.57
2018-12-31T01:56:16.462Z,50.90
2018-12-31T01:58:45.404Z,46.83
2018-12-31T02:01:14.311Z,47.33
2018-12-31T02:03:43.205Z,51.77
2018-12-31T02:06:12.126Z,47.67
2018-12-31T02:08:40.998Z,49.20
2018-12-31T02:11:09.933Z,52.73
2018-12-31T02:13:38.816Z,55.90
2018-12-31T02:16:07.777Z,53.70
2018-12-31T02:18:36.681Z,68.50
2018-12-31T02:21:05.605Z,52.43
2018-12-31T02:23:34.581Z,44.63
2018-12-31T02:26:03.423Z,59.65
2018-12-31T02:28:32.319Z,52.07
2018-12-31T02:31:01.254Z,46.77
2018-12-31T02:33:30.145Z,45.13
2018-12-31T02:35:59.043Z,50.00
2018-12-31T02:38:27.951Z,47.70
2018-12-31T02:40:56.851Z,43.83
2018-12-31T02:43:25.777Z,59.83
2018-12-31T02:45:54.670Z,43.13
2018-12-31T02:48:23.589Z,50.87
2018-12-31T02:50:52.487Z,51.50
2018-12-31T02:53:21.411Z,44.07
2018-12-31T02:55:50.338Z,50.77
2018-12-31T02:58:19.226Z,48.17
2018-12-31T03:00:48.134Z,51.77
2018-12-31T03:03:17.036Z,65.77
2018-12-31T03:05:45.956Z,55.80
2018-12-31T03:08:14.844Z,48.20
2018-12-31T03:10:43.828Z,46.03
2018-12-31T03:13:12.657Z,48.67
2018-12-31T03:15:41.572Z,39.73
2018-12-31T03:18:10.491Z,45.50
2018-12-31T03:20:39.418Z,42.93
2018-12-31T03:23:08.355Z,45.43
2018-12-31T03:25:37.268Z,42.10
2018-12-31T03:28:06.238Z,44.87
2018-12-31T03:30:35.180Z,43.40
2018-12-31T03:33:04.083Z,42.20
2018-12-31T03:35:33.032Z,52.93
2018-12-31T03:38:05.119Z,45.90
2018-12-31T03:40:34.054Z,50.80
2018-12-31T03:43:02.945Z,46.90
2018-12-31T03:45:31.852Z,46.37
2018-12-31T03:48:00.771Z,56.37
2018-12-31T03:50:29.680Z,42.00
2018-12-31T03:52:58.605Z,42.70
2018-12-31T03:55:27.469Z,46.65
2018-12-31T03:57:56.384Z,40.73
2018-12-31T04:00:25.304Z,34.47
2018-12-31T04:02:54.241Z,41.43
2018-12-31T04:05:23.177Z,92.50
2018-12-31T04:07:53.356Z,39.40
2018-12-31T04:10:21.013Z,37.83
2018-12-31T04:12:49.968Z,35.60
2018-12-31T04:15:18.853Z,36.50
2018-12-31T04:17:47.743Z,39.27
2018-12-31T04:20:16.661Z,37.13
2018-12-31T04:22:45.549Z,36.50
2018-12-31T04:25:14.488Z,45.88
2018-12-31T04:27:43.390Z,44.53
2018-12-31T04:30:12.289Z,41.03
2018-12-31T04:32:41.201Z,37.73
2018-12-31T04:35:10.150Z,41.00
2018-12-31T04:37:39.035Z,33.70
2018-12-31T04:40:07.961Z,31.23
2018-12-31T04:42:36.865Z,41.00
2018-12-31T04:45:05.909Z,40.57
2018-12-31T04:47:34.838Z,32.80
2018-12-31T04:50:03.774Z,33.70
2018-12-31T04:52:32.686Z,30.57
2018-12-31T04:55:01.593Z,38.33
2018-12-31T04:57:30.537Z,34.83
2018-12-31T04:59:59.432Z,37.97
2018-12-31T05:02:28.335Z,43.02
2018-12-31T05:04:57.320Z,37.03
2018-12-31T05:07:26.244Z,35.50
2018-12-31T05:09:55.179Z,35.67
2018-12-31T05:12:24.044Z,31.43
2018-12-31T05:14:52.963Z,36.57
2018-12-31T05:17:21.876Z,34.80
2018-12-31T05:19:50.815Z,35.03
2018-12-31T05:22:19.723Z,37.13
2018-12-31T05:24:48.677Z,36.17
2018-12-31T05:27:17.589Z,32.40
2018-12-31T05:29:46.507Z,34.60
2018-12-31T05:32:15.451Z,36.13
2018-12-31T05:34:44.356Z,39.20
2018-12-31T05:37:13.270Z,35.07
2018-12-31T05:39:42.145Z,46.03
2018-12-31T05:42:11.057Z,35.03
2018-12-31T05:44:39.942Z,33.17
2018-12-31T05:47:08.898Z,40.13
2018-12-31T05:49:37.808Z,47.63
2018-12-31T05:52:06.724Z,42.00
2018-12-31T05:54:35.657Z,37.10
2018-12-31T05:57:04.564Z,42.43
2018-12-31T05:59:33.487Z,40.33
2018-12-31T06:02:02.365Z,44.27
2018-12-31T06:04:31.251Z,40.27
2018-12-31T06:07:00.166Z,42.03
2018-12-31T06:09:29.071Z,43.13
2018-12-31T06:11:58.013Z,34.17
2018-12-31T06:14:26.968Z,45.33
2018-12-31T06:16:55.921Z,36.90
2018-12-31T06:19:24.826Z,44.80
2018-12-31T06:21:53.717Z,43.70
2018-12-31T06:24:22.638Z,40.43
2018-12-31T06:26:51.528Z,40.60
2018-12-31T06:29:20.468Z,39.17
2018-12-31T06:31:49.385Z,40.13
2018-12-31T06:34:18.313Z,42.70
2018-12-31T06:36:47.212Z,42.87
2018-12-31T06:39:16.131Z,35.97
2018-12-31T06:41:45.032Z,38.30
2018-12-31T06:44:13.942Z,37.00
2018-12-31T06:46:42.847Z,43.23
2018-12-31T06:49:11.760Z,37.80
2018-12-31T06:51:40.638Z,33.23
2018-12-31T06:54:09.543Z,32.07
2018-12-31T06:56:38.433Z,42.70
2018-12-31T06:59:07.358Z,37.30
2018-12-31T07:01:36.260Z,52.67
2018-12-31T07:04:05.209Z,37.67
2018-12-31T07:06:34.090Z,42.23
2018-12-31T07:09:03.015Z,43.60
2018-12-31T07:11:31.940Z,46.05
2018-12-31T07:14:00.858Z,34.50
2018-12-31T07:16:29.768Z,38.33
2018-12-31T07:18:58.679Z,39.83
2018-12-31T07:21:27.638Z,44.13
2018-12-31T07:23:56.537Z,40.53
2018-12-31T07:26:25.421Z,49.38
2018-12-31T07:28:54.356Z,44.23
2018-12-31T07:31:23.230Z,49.13
2018-12-31T07:33:52.152Z,36.50
2018-12-31T07:36:21.122Z,40.50
2018-12-31T07:38:49.987Z,36.70
2018-12-31T07:41:18.924Z,45.37
2018-12-31T07:43:47.828Z,38.07
2018-12-31T07:46:16.767Z,48.07
2018-12-31T07:48:45.701Z,40.10
2018-12-31T07:51:14.632Z,50.08
2018-12-31T07:53:43.534Z,42.63
2018-12-31T07:56:12.449Z,45.43
2018-12-31T07:58:41.367Z,39.93
2018-12-31T08:01:10.283Z,36.07
2018-12-31T08:03:39.206Z,40.30
2018-12-31T08:06:08.321Z,36.30
2018-12-31T08:08:37.275Z,41.23
2018-12-31T08:11:06.410Z,41.80
2018-12-31T08:13:35.313Z,39.70
2018-12-31T08:16:04.311Z,38.77
2018-12-31T08:18:33.402Z,34.67
2018-12-31T08:21:02.313Z,39.47
2018-12-31T08:23:31.213Z,37.07
2018-12-31T08:26:00.157Z,43.70
2018-12-31T08:28:29.049Z,45.97
2018-12-31T08:30:57.976Z,36.53
2018-12-31T08:33:26.875Z,36.77
2018-12-31T08:35:55.809Z,38.93
2018-12-31T08:38:24.803Z,40.37
2018-12-31T08:40:53.692Z,38.13
2018-12-31T08:43:22.645Z,41.70
2018-12-31T08:45:51.561Z,38.70
2018-12-31T08:48:20.462Z,34.43
2018-12-31T08:50:49.354Z,46.98
2018-12-31T08:53:18.268Z,45.92
2018-12-31T08:55:47.166Z,40.53
2018-12-31T08:58:16.082Z,40.30
2018-12-31T09:00:45.013Z,34.43
2018-12-31T09:03:13.920Z,43.80
2018-12-31T09:05:42.833Z,44.07
2018-12-31T09:08:11.815Z,40.30
2018-12-31T09:10:40.729Z,40.07
2018-12-31T09:13:09.891Z,34.80
2018-12-31T09:15:38.800Z,40.53
2018-12-31T09:18:07.802Z,36.13
2018-12-31T09:20:36.703Z,35.93
2018-12-31T09:23:05.724Z,38.80
2018-12-31T09:25:34.652Z,42.37
2018-12-31T09:28:03.604Z,31.40
2018-12-31T09:30:32.479Z,34.97
2018-12-31T09:33:01.354Z,40.87
2018-12-31T09:35:30.273Z,41.07
2018-12-31T09:37:59.150Z,29.83
2018-12-31T09:40:28.056Z,37.87
2018-12-31T09:42:56.925Z,37.93
2018-12-31T09:45:25.816Z,47.60
2018-12-31T09:47:54.708Z,27.40
2018-12-31T09:50:23.623Z,37.27
2018-12-31T09:52:52.513Z,36.30
2018-12-31T09:55:21.430Z,36.73
2018-12-31T09:57:50.349Z,34.10
2018-12-31T10:00:19.269Z,37.10
2018-12-31T10:02:48.209Z,25.83
2018-12-31T10:05:17.116Z,34.90
2018-12-31T10:07:46.044Z,40.07
2018-12-31T10:10:14.954Z,34.57
2018-12-31T10:12:43.873Z,28.27
2018-12-31T10:15:12.774Z,33.53
2018-12-31T10:17:41.710Z,35.57
2018-12-31T10:20:10.622Z,27.47
2018-12-31T10:22:39.537Z,29.20
2018-12-31T10:25:08.547Z,28.43
2018-12-31T10:27:37.468Z,34.03
2018-12-31T10:30:06.474Z,39.80
2018-12-31T10:32:35.409Z,31.80
2018-12-31T10:35:04.306Z,33.13
2018-12-31T10:37:33.227Z,33.57
2018-12-31T10:40:02.128Z,34.33
2018-12-31T10:42:31.011Z,35.50
2018-12-31T10:44:59.924Z,30.90
2018-12-31T10:47:28.817Z,34.03
2018-12-31T10:49:57.757Z,25.80
2018-12-31T10:52:26.671Z,29.30
2018-12-31T10:54:55.576Z,35.40
2018-12-31T10:57:24.494Z,28.07
2018-12-31T10:59:53.410Z,32.70
2018-12-31T11:02:23.331Z,31.43
2018-12-31T11:04:51.243Z,22.57
2018-12-31T11:07:20.144Z,28.40
2018-12-31T11:09:49.064Z,26.80
2018-12-31T11:12:17.939Z,29.07
2018-12-31T11:14:46.908Z,31.70
2018-12-31T11:17:15.776Z,34.97
2018-12-31T11:20:20.624Z,29.33
2018-12-31T11:22:49.563Z,32.93
2018-12-31T11:25:18.539Z,35.80
2018-12-31T11:27:47.446Z,30.87
2018-12-31T11:30:16.401Z,30.87
2018-12-31T11:32:45.306Z,28.70
2018-12-31T11:35:14.210Z,29.53
2018-12-31T11:37:43.138Z,28.13
2018-12-31T11:40:12.065Z,32.37
2018-12-31T11:42:40.947Z,31.25
2018-12-31T11:45:09.934Z,29.90
2018-12-31T11:47:38.820Z,25.67
2018-12-31T11:50:07.850Z,30.90
2018-12-31T11:52:36.765Z,31.03
2018-12-31T11:55:05.751Z,35.93
2018-12-31T11:57:34.651Z,32.90
2018-12-31T12:00:03.685Z,37.40
2018-12-31T12:02:32.572Z,31.20
2018-12-31T12:05:01.497Z,34.40
2018-12-31T12:07:30.384Z,31.03
2018-12-31T12:09:59.645Z,34.77
2018-12-31T12:12:28.229Z,35.13
2018-12-31T12:14:57.144Z,34.23
2018-12-31T12:17:26.075Z,35.60
2018-12-31T12:19:54.958Z,34.07
2018-12-31T12:22:23.895Z,36.67
2018-12-31T12:24:52.775Z,31.07
2018-12-31T12:27:21.870Z,36.93
2018-12-31T12:29:50.759Z,35.57
2018-12-31T12:32:19.666Z,35.00
2018-12-31T12:34:48.581Z,49.23
2018-12-31T12:37:17.495Z,31.50
2018-12-31T12:39:46.389Z,33.87
2018-12-31T12:42:15.309Z,32.83
2018-12-31T12:44:44.200Z,26.60
2018-12-31T12:47:13.140Z,28.00
2018-12-31T12:49:42.052Z,29.47
2018-12-31T12:52:10.953Z,28.60
2018-12-31T12:54:39.874Z,23.30
2018-12-31T12:57:08.905Z,22.00
2018-12-31T12:59:37.836Z,28.05
2018-12-31T13:02:06.876Z,24.50
2018-12-31T13:04:35.745Z,24.20
2018-12-31T13:07:04.680Z,23.00
2018-12-31T13:09:33.614Z,24.40
2018-12-31T13:12:02.496Z,28.87
2018-12-31T13:14:31.426Z,26.83
2018-12-31T13:17:00.315Z,26.07
2018-12-31T13:19:29.241Z,26.57
2018-12-31T13:21:58.134Z,23.57
2018-12-31T13:24:27.030Z,26.03
2018-12-31T13:26:55.972Z,29.57
2018-12-31T13:29:24.834Z,27.90
2018-12-31T13:31:53.726Z,26.30
2018-12-31T13:34:22.667Z,30.83
2018-12-31T13:36:51.576Z,27.73
2018-12-31T13:39:20.492Z,31.57
2018-12-31T13:41:49.406Z,30.67
2018-12-31T13:44:18.338Z,32.23
2018-12-31T13:46:47.233Z,30.87
2018-12-31T13:49:16.143Z,33.40
2018-12-31T13:51:45.042Z,31.37
2018-12-31T13:54:13.945Z,28.83
2018-12-31T13:56:42.834Z,31.30
2018-12-31T13:59:11.724Z,34.00
2018-12-31T14:01:40.676Z,32.63
2018-12-31T14:04:09.533Z,31.03
2018-12-31T14:06:38.453Z,28.73
2018-12-31T14:09:07.845Z,31.97
2018-12-31T14:11:36.718Z,33.23
2018-12-31T14:14:05.734Z,32.73
2018-12-31T14:16:34.610Z,33.97
2018-12-31T14:19:03.518Z,31.20
2018-12-31T14:21:32.437Z,32.47
2018-12-31T14:24:01.346Z,26.10
2018-12-31T14:26:30.264Z,21.43
2018-12-31T14:28:59.159Z,24.03
2018-12-31T14:31:28.057Z,21.23
2018-12-31T14:33:57.001Z,26.97
2018-12-31T14:36:25.888Z,24.80
2018-12-31T14:38:54.808Z,23.73
2018-12-31T14:41:23.710Z,22.17
2018-12-31T14:43:52.605Z,23.23
2018-12-31T14:46:23.013Z,19.10
2018-12-31T14:48:50.448Z,22.73
2018-12-31T14:51:19.359Z,19.53
2018-12-31T14:53:48.298Z,22.60
2018-12-31T14:56:17.203Z,23.80
2018-12-31T14:58:46.093Z,21.93
2018-12-31T15:01:15.019Z,24.57
2018-12-31T15:03:43.926Z,24.20
2018-12-31T15:06:12.808Z,21.40
2018-12-31T15:08:41.743Z,22.53
2018-12-31T15:11:10.622Z,21.53
2018-12-31T15:13:39.583Z,23.90
2018-12-31T15:16:08.624Z,21.60
2018-12-31T15:18:37.546Z,19.60
2018-12-31T15:21:06.580Z,21.90
2018-12-31T15:23:35.461Z,23.20
2018-12-31T15:26:04.456Z,22.53
2018-12-31T15:28:33.395Z,22.80
2018-12-31T15:31:02.295Z,23.43
2018-12-31T15:33:31.209Z,21.90
2018-12-31T15:36:00.118Z,23.43
2018-12-31T15:38:29.065Z,23.77
2018-12-31T15:40:57.950Z,20.50
2018-12-31T15:43:26.872Z,26.77
2018-12-31T15:45:55.766Z,24.83
2018-12-31T15:48:24.659Z,23.37
2018-12-31T15:50:53.586Z,26.83
2018-12-31T15:53:22.493Z,35.33
2018-12-31T15:55:51.389Z,36.60
2018-12-31T15:58:20.298Z,33.80
2018-12-31T16:00:49.193Z,27.07
2018-12-31T16:03:18.093Z,27.53
2018-12-31T16:05:46.970Z,26.97
2018-12-31T16:08:15.885Z,33.33
2018-12-31T16:10:44.779Z,28.93
2018-12-31T16:13:13.657Z,29.73
2018-12-31T16:15:42.612Z,28.20
2018-12-31T16:18:11.687Z,25.10
2018-12-31T16:20:40.601Z,29.20
2018-12-31T16:23:09.493Z,29.80
2018-12-31T16:25:38.386Z,31.80
2018-12-31T16:28:07.397Z,30.10
2018-12-31T16:30:36.177Z,33.73
2018-12-31T16:33:05.084Z,28.87
2018-12-31T16:35:33.993Z,31.53
2018-12-31T16:38:02.898Z,25.80
2018-12-31T16:40:31.823Z,26.67
2018-12-31T16:43:00.705Z,29.93
2018-12-31T16:45:29.627Z,33.30
2018-12-31T16:47:58.542Z,37.77
2018-12-31T16:50:27.422Z,30.03
2018-12-31T16:52:56.332Z,29.07
2018-12-31T16:55:25.247Z,35.60
2018-12-31T16:57:54.176Z,34.40
2018-12-31T17:00:23.088Z,32.40
2018-12-31T17:02:51.996Z,35.13
2018-12-31T17:05:20.896Z,33.47
2018-12-31T17:07:49.802Z,34.37
2018-12-31T17:10:18.709Z,36.17
2018-12-31T17:12:47.594Z,32.03
2018-12-31T17:15:16.490Z,36.17
2018-12-31T17:17:45.392Z,36.80
2018-12-31T17:20:14.302Z,36.85
2018-12-31T17:22:43.182Z,36.70
2018-12-31T17:25:12.081Z,34.20
2018-12-31T17:27:40.966Z,35.50
2018-12-31T17:30:09.899Z,34.97
2018-12-31T17:32:38.806Z,35.17
2018-12-31T17:35:07.764Z,31.87
2018-12-31T17:37:36.659Z,36.97
2018-12-31T17:40:05.611Z,35.00
2018-12-31T17:42:34.540Z,38.23
2018-12-31T17:45:03.448Z,41.18
2018-12-31T17:47:32.359Z,35.80
2018-12-31T17:50:01.243Z,36.83
2018-12-31T17:52:30.150Z,39.67
2018-12-31T17:54:59.064Z,39.97
2018-12-31T17:57:27.969Z,38.17
2018-12-31T17:59:56.901Z,39.83
2018-12-31T18:02:25.836Z,34.67
2018-12-31T18:04:55.037Z,38.20
2018-12-31T18:07:23.915Z,40.43
2018-12-31T18:09:52.825Z,38.65
2018-12-31T18:12:21.719Z,36.50
2018-12-31T18:14:50.618Z,33.53
2018-12-31T18:17:19.521Z,36.83
2018-12-31T18:19:48.438Z,37.70
2018-12-31T18:22:17.353Z,35.07
2018-12-31T18:24:46.262Z,42.50
2018-12-31T18:27:15.174Z,40.87
2018-12-31T18:29:44.051Z,40.73
2018-12-31T18:32:12.945Z,45.80
2018-12-31T18:34:41.842Z,42.27
2018-12-31T18:37:10.748Z,46.83
2018-12-31T18:39:39.616Z,47.10
2018-12-31T18:42:08.571Z,47.07
2018-12-31T18:44:37.469Z,49.55
2018-12-31T18:47:06.451Z,45.47
2018-12-31T18:49:35.344Z,44.50
2018-12-31T18:52:04.261Z,44.80
2018-12-31T18:54:33.141Z,44.57
2018-12-31T18:57:02.061Z,48.50
2018-12-31T18:59:30.934Z,48.67
2018-12-31T19:01:59.836Z,47.13
2018-12-31T19:04:28.755Z,53.42
2018-12-31T19:06:57.665Z,50.53
2018-12-31T19:09:26.561Z,47.17
2018-12-31T19:11:55.452Z,50.20
2018-12-31T19:14:24.346Z,50.13
2018-12-31T19:16:53.253Z,50.50
2018-12-31T19:19:22.169Z,52.27
2018-12-31T19:21:51.055Z,51.50
2018-12-31T19:24:19.987Z,56.58
2018-12-31T19:26:48.888Z,52.80
2018-12-31T19:29:17.798Z,50.00
2018-12-31T19:31:46.684Z,51.80
2018-12-31T19:34:15.566Z,50.33
2018-12-31T19:36:44.495Z,51.33
2018-12-31T19:39:13.388Z,55.43
2018-12-31T19:41:42.292Z,53.67
2018-12-31T19:44:11.184Z,51.73
2018-12-31T19:46:40.127Z,49.70
2018-12-31T19:49:09.008Z,48.37
2018-12-31T19:51:37.907Z,45.77
2018-12-31T19:54:06.850Z,43.53
2018-12-31T19:56:35.771Z,46.27
2018-12-31T19:59:04.663Z,43.67
2018-12-31T20:01:33.577Z,42.77
2018-12-31T20:04:02.461Z,45.93
2018-12-31T20:06:31.340Z,44.67
2018-12-31T20:09:00.242Z,46.20
2018-12-31T20:11:29.129Z,48.47
2018-12-31T20:13:58.015Z,46.10
2018-12-31T20:16:26.930Z,46.60
2018-12-31T20:18:55.853Z,42.70
2018-12-31T20:21:24.787Z,40.80
2018-12-31T20:23:53.658Z,41.87
2018-12-31T20:26:22.549Z,42.73
2018-12-31T20:28:51.474Z,39.83
2018-12-31T20:31:20.347Z,38.10
2018-12-31T20:33:49.298Z,40.03
2018-12-31T20:36:18.219Z,38.60
2018-12-31T20:38:47.157Z,41.20
2018-12-31T20:41:16.006Z,39.33
2018-12-31T20:43:44.910Z,35.17
2018-12-31T20:46:13.823Z,34.83
2018-12-31T20:48:42.705Z,33.13
2018-12-31T20:51:11.625Z,35.87
2018-12-31T20:53:40.548Z,30.30
2018-12-31T20:56:09.520Z,30.33
2018-12-31T20:58:38.407Z,33.13
2018-12-31T21:01:07.342Z,34.25
2018-12-31T21:03:36.226Z,33.50
2018-12-31T21:06:05.094Z,32.43
2018-12-31T21:08:34.010Z,32.87
2018-12-31T21:11:02.899Z,34.37
2018-12-31T21:13:31.820Z,33.50
2018-12-31T21:16:00.702Z,35.80
2018-12-31T21:18:29.613Z,31.07
2018-12-31T21:20:58.532Z,34.27
2018-12-31T21:23:27.449Z,33.47
2018-12-31T21:25:56.337Z,35.85
2018-12-31T21:28:25.311Z,31.50
2018-12-31T21:30:54.132Z,31.40
2018-12-31T21:33:23.034Z,29.83
2018-12-31T21:35:51.918Z,35.10
2018-12-31T21:38:20.786Z,31.50
2018-12-31T21:40:49.687Z,33.03
2018-12-31T21:43:18.568Z,32.47
2018-12-31T21:45:47.460Z,32.20
2018-12-31T21:48:16.336Z,31.73
2018-12-31T21:50:45.237Z,30.80
2018-12-31T21:53:14.136Z,30.73
2018-12-31T21:55:43.066Z,31.73
2018-12-31T21:58:11.927Z,28.33
2018-12-31T22:00:40.821Z,27.97
2018-12-31T22:03:09.790Z,27.77
2018-12-31T22:05:38.665Z,30.33
2018-12-31T22:08:07.584Z,29.90
2018-12-31T22:10:36.480Z,30.83
2018-12-31T22:13:05.409Z,33.63
2018-12-31T22:15:34.310Z,34.67
2018-12-31T22:18:03.195Z,36.93
2018-12-31T22:20:32.060Z,36.30
2018-12-31T22:23:00.984Z,38.13
2018-12-31T22:25:29.896Z,35.07
2018-12-31T22:27:58.798Z,33.40
2018-12-31T22:30:27.693Z,33.47
2018-12-31T22:32:56.602Z,30.23
2018-12-31T22:35:25.505Z,35.73
2018-12-31T22:37:54.397Z,39.53
2018-12-31T22:40:23.262Z,39.93
2018-12-31T22:42:52.183Z,36.77
2018-12-31T22:45:21.069Z,36.40
2018-12-31T22:47:49.970Z,34.00
2018-12-31T22:50:18.877Z,41.50
2018-12-31T22:52:47.750Z,39.73
2018-12-31T22:55:16.625Z,39.40
2018-12-31T22:57:45.554Z,40.27
2018-12-31T23:00:14.474Z,40.47
2018-12-31T23:02:43.336Z,42.70
2018-12-31T23:05:13.314Z,42.10
2018-12-31T23:07:42.492Z,40.17
2018-12-31T23:10:11.412Z,48.67
2018-12-31T23:12:40.323Z,44.73
2018-12-31T23:15:12.971Z,49.43
2018-12-31T23:17:41.858Z,71.87
2018-12-31T23:20:11.571Z,54.27
2018-12-31T23:22:40.468Z,66.10
2018-12-31T23:25:09.349Z,76.47
2018-12-31T23:27:38.260Z,69.37
2018-12-31T23:30:08.608Z,78.67
2018-12-31T23:32:37.504Z,58.40
2018-12-31T23:35:06.884Z,59.73
2018-12-31T23:37:36.866Z,47.03
2018-12-31T23:40:07.394Z,57.07
2018-12-31T23:42:36.335Z,57.33
2018-12-31T23:45:05.706Z,64.40
2018-12-31T23:47:34.584Z,65.17
2018-12-31T23:50:03.536Z,71.43
2018-12-31T23:52:32.455Z,76.10
2018-12-31T23:55:01.531Z,79.03
2018-12-31T23:57:30.225Z,77.47
2018-12-31T23:59:59.173Z,82.50
